Merrill, Oregon
Current Conditions -  °F | °C
As of 8:16 AM on Sunday 21 Dec 2014 (Local Time) from KLMT Reporting Station
Light Rain Light Rain  
Wind Chill: 44°   Ceiling: 3800
Heat Index: 49°   Visibility: 10mi
Dew Point: 45°   Wind: 12mph
Humidity: 86%   Direction: 240°WSW
Pressure: 30.1"   Gusts: NA
Location:  42.03°N, 121.6°W
Report Text: KLMT 211616Z 24010KT 10SM -RA SCT021 BKN038 OVC070 09/07 A3010 RMK AO2 P0001 T00940072
Loading
Personal Weather Stations






























Interactive Weather Map New forecast layout! Learn more

10-Day Weather Forecast

Advertisements
Track Severe Weather on mobile